Time;durP1;ratioP1;P1;durP2;ratioP2;P2;SDS_P1;SDS_P2;PMS_P1;PMS_P2;Temp;Humidity;BMP_temperature;BMP_pressure;BME280_temperature;BME280_humidity;BME280_pressure;Samples;Min_cycle;Max_cycle;Signal;HPM_P1;HPM_P2
2023/08/06 00:02:15;;;;;;;14.60;9.10;;;;;;;;;;5054068;28;20293;-69
2023/08/06 00:04:41;;;;;;;13.50;6.90;;;;;;;;;;5054655;28;20178;-70
2023/08/06 00:07:07;;;;;;;17.17;8.67;;;;;;;;;;5054703;28;20210;-69
2023/08/06 00:09:33;;;;;;;11.43;7.97;;;;;;;;;;5054627;28;20198;-69
2023/08/06 00:11:59;;;;;;;14.33;8.57;;;;;;;;;;5054921;28;20214;-69
2023/08/06 00:14:25;;;;;;;9.87;7.93;;;;;;;;;;5054642;28;20635;-69
2023/08/06 00:16:51;;;;;;;10.07;6.13;;;;;;;;;;5054573;28;20178;-69
2023/08/06 00:19:17;;;;;;;9.17;5.60;;;;;;;;;;5054753;28;20227;-69
2023/08/06 00:21:43;;;;;;;9.20;5.80;;;;;;;;;;5054455;28;20273;-69
2023/08/06 00:24:09;;;;;;;11.97;7.00;;;;;;;;;;5054653;28;20556;-69
2023/08/06 00:26:35;;;;;;;8.77;6.83;;;;;;;;;;5054459;28;20648;-69
2023/08/06 00:29:01;;;;;;;10.60;6.63;;;;;;;;;;5054400;28;20209;-69
2023/08/06 00:31:27;;;;;;;17.37;7.10;;;;;;;;;;5054558;28;20652;-69
2023/08/06 00:33:53;;;;;;;10.90;6.17;;;;;;;;;;5054806;28;20225;-69
2023/08/06 00:36:18;;;;;;;8.60;6.30;;;;;;;;;;5053003;28;20178;-68
2023/08/06 00:38:44;;;;;;;12.87;6.87;;;;;;;;;;5054106;28;20178;-69
2023/08/06 00:41:10;;;;;;;9.47;6.00;;;;;;;;;;5052817;28;20228;-69
2023/08/06 00:43:36;;;;;;;10.40;6.50;;;;;;;;;;5054205;28;20236;-69
2023/08/06 00:46:02;;;;;;;9.53;6.37;;;;;;;;;;5054292;28;20184;-69
2023/08/06 00:48:28;;;;;;;9.33;6.07;;;;;;;;;;5052640;28;20230;-68
2023/08/06 00:50:54;;;;;;;11.70;5.93;;;;;;;;;;5053927;28;20175;-70
2023/08/06 00:53:20;;;;;;;10.70;6.10;;;;;;;;;;5053840;28;20194;-69
2023/08/06 00:55:47;;;;;;;9.97;6.00;;;;;;;;;;5054130;28;20687;-70
2023/08/06 00:58:14;;;;;;;9.63;5.80;;;;;;;;;;5053816;28;20694;-71
2023/08/06 01:00:40;;;;;;;10.50;6.07;;;;;;;;;;5052612;28;20178;-69
2023/08/06 01:03:06;;;;;;;9.37;5.77;;;;;;;;;;5053635;28;20225;-69
2023/08/06 01:05:32;;;;;;;10.43;5.33;;;;;;;;;;5053968;28;20648;-71
2023/08/06 01:08:17;;;;;;;8.67;6.23;;;;;;;;;;5053651;28;20178;-69
2023/08/06 01:10:56;;;;;;;11.70;5.97;;;;;;;;;;5053766;28;20550;-69
2023/08/06 01:13:58;;;;;;;9.73;5.30;;;;;;;;;;5053565;28;20255;-69
2023/08/06 01:16:24;;;;;;;11.13;5.87;;;;;;;;;;4995384;28;20183;-69
2023/08/06 01:18:50;;;;;;;12.33;6.10;;;;;;;;;;5045390;28;20557;-69
2023/08/06 01:21:17;;;;;;;10.40;6.60;;;;;;;;;;5053384;28;20182;-69
2023/08/06 01:23:43;;;;;;;12.23;6.40;;;;;;;;;;5053450;28;20178;-69
2023/08/06 01:26:15;;;;;;;10.00;5.30;;;;;;;;;;5052081;28;20209;-69
2023/08/06 01:28:48;;;;;;;8.93;5.40;;;;;;;;;;5053675;28;20205;-69
2023/08/06 01:31:22;;;;;;;5.63;4.20;;;;;;;;;;5053248;28;20193;-70
2023/08/06 01:33:49;;;;;;;7.37;5.13;;;;;;;;;;5053470;28;20692;-69
2023/08/06 01:36:19;;;;;;;9.93;4.43;;;;;;;;;;5051915;28;20278;-69
2023/08/06 01:38:45;;;;;;;6.43;4.87;;;;;;;;;;5053552;28;20261;-69
2023/08/06 01:41:11;;;;;;;10.67;5.30;;;;;;;;;;5053715;28;20209;-70
2023/08/06 01:43:37;;;;;;;10.67;5.93;;;;;;;;;;5053241;28;20202;-70
2023/08/06 01:46:03;;;;;;;9.00;6.20;;;;;;;;;;5051853;28;20666;-70
2023/08/06 01:48:29;;;;;;;9.27;5.70;;;;;;;;;;5052931;28;20210;-69
2023/08/06 01:50:55;;;;;;;12.37;6.53;;;;;;;;;;5052964;28;20170;-69
2023/08/06 01:53:21;;;;;;;25.50;13.10;;;;;;;;;;5053078;28;20205;-69
2023/08/06 01:55:50;;;;;;;19.57;10.83;;;;;;;;;;5053230;28;20181;-69
2023/08/06 01:58:16;;;;;;;19.87;11.30;;;;;;;;;;5051830;28;20265;-69
2023/08/06 02:00:42;;;;;;;12.83;8.67;;;;;;;;;;5052981;28;20213;-69
2023/08/06 02:03:08;;;;;;;16.43;10.47;;;;;;;;;;5052989;28;20708;-69
2023/08/06 02:05:34;;;;;;;15.60;7.97;;;;;;;;;;5051636;28;20265;-70
2023/08/06 02:08:00;;;;;;;13.70;8.33;;;;;;;;;;5052911;28;20644;-70
2023/08/06 02:10:25;;;;;;;13.83;7.97;;;;;;;;;;5053193;28;20715;-70
2023/08/06 02:12:51;;;;;;;9.77;7.17;;;;;;;;;;5051659;28;20199;-70
2023/08/06 02:15:17;;;;;;;10.30;6.27;;;;;;;;;;5052786;28;20233;-70
2023/08/06 02:17:43;;;;;;;9.77;6.00;;;;;;;;;;5053220;28;20304;-69
2023/08/06 02:20:09;;;;;;;7.30;5.50;;;;;;;;;;5052935;28;20178;-70
2023/08/06 02:22:35;;;;;;;11.70;7.93;;;;;;;;;;5052850;28;20202;-69
2023/08/06 02:25:01;;;;;;;11.60;7.57;;;;;;;;;;5056144;28;20671;-69
2023/08/06 02:27:27;;;;;;;12.53;6.97;;;;;;;;;;5056910;28;20175;-70
2023/08/06 02:29:53;;;;;;;10.87;7.37;;;;;;;;;;5055326;28;20195;-69
2023/08/06 02:32:19;;;;;;;20.33;9.70;;;;;;;;;;5056343;28;20221;-70
2023/08/06 02:34:45;;;;;;;19.03;10.07;;;;;;;;;;5057082;28;20198;-70
2023/08/06 02:37:11;;;;;;;17.50;8.27;;;;;;;;;;5056152;28;20186;-70
2023/08/06 02:39:39;;;;;;;15.43;8.00;;;;;;;;;;5056248;28;20186;-69
2023/08/06 02:42:06;;;;;;;11.00;7.30;;;;;;;;;;5057266;28;20248;-70
2023/08/06 02:44:33;;;;;;;18.40;9.43;;;;;;;;;;5056989;28;20663;-69
2023/08/06 02:46:59;;;;;;;21.20;9.47;;;;;;;;;;5056900;28;20177;-69
2023/08/06 02:49:25;;;;;;;23.80;10.33;;;;;;;;;;5056700;28;20202;-69
2023/08/06 02:51:51;;;;;;;28.53;12.50;;;;;;;;;;5056880;28;20195;-70
2023/08/06 02:54:18;;;;;;;22.07;10.37;;;;;;;;;;5055437;28;20269;-69
2023/08/06 02:56:44;;;;;;;23.83;10.80;;;;;;;;;;5056861;28;20579;-70
2023/08/06 02:59:11;;;;;;;16.23;8.40;;;;;;;;;;5055473;28;20182;-69
2023/08/06 03:01:37;;;;;;;14.87;7.43;;;;;;;;;;5056393;28;20199;-69
2023/08/06 03:04:03;;;;;;;9.50;6.67;;;;;;;;;;5055207;28;20182;-69
2023/08/06 03:06:29;;;;;;;11.47;6.40;;;;;;;;;;5056424;28;20228;-68
2023/08/06 03:08:55;;;;;;;7.23;6.50;;;;;;;;;;5056811;28;20202;-71
2023/08/06 03:11:21;;;;;;;8.17;6.23;;;;;;;;;;5055964;28;20521;-70
2023/08/06 03:13:47;;;;;;;10.67;6.47;;;;;;;;;;5056167;28;20178;-70
2023/08/06 03:16:13;;;;;;;8.33;5.80;;;;;;;;;;5056311;28;20179;-70
2023/08/06 03:18:39;;;;;;;9.63;6.57;;;;;;;;;;5056166;28;20175;-70
2023/08/06 03:21:05;;;;;;;9.60;6.40;;;;;;;;;;5055825;28;20175;-71
2023/08/06 03:23:31;;;;;;;10.50;7.13;;;;;;;;;;5055721;28;20178;-70
2023/08/06 03:26:02;;;;;;;10.67;7.07;;;;;;;;;;5054335;28;20185;-69
2023/08/06 03:28:28;;;;;;;18.40;10.53;;;;;;;;;;5055727;28;20190;-71
2023/08/06 03:31:03;;;;;;;17.03;10.10;;;;;;;;;;5055553;28;20668;-70
2023/08/06 03:33:29;;;;;;;19.57;10.67;;;;;;;;;;5055171;28;20209;-71
2023/08/06 03:35:56;;;;;;;18.07;10.63;;;;;;;;;;5055052;28;20206;-70
2023/08/06 03:38:22;;;;;;;25.90;11.10;;;;;;;;;;5055409;28;20205;-70
2023/08/06 03:40:48;;;;;;;19.63;10.57;;;;;;;;;;5054263;28;20198;-70
2023/08/06 03:43:14;;;;;;;30.37;16.23;;;;;;;;;;5055276;28;20203;-70
2023/08/06 03:45:43;;;;;;;24.53;14.17;;;;;;;;;;5055226;28;20260;-70
2023/08/06 03:48:09;;;;;;;31.30;14.50;;;;;;;;;;5055176;28;20591;-70
2023/08/06 03:50:36;;;;;;;33.40;19.10;;;;;;;;;;5055235;28;20193;-70
2023/08/06 03:53:01;;;;;;;29.10;16.80;;;;;;;;;;5053918;28;20198;-70
2023/08/06 03:55:27;;;;;;;26.83;15.97;;;;;;;;;;5053850;28;20658;-70
2023/08/06 03:57:53;;;;;;;26.43;15.10;;;;;;;;;;5055237;28;20205;-70
2023/08/06 04:00:19;;;;;;;29.97;18.27;;;;;;;;;;5055000;28;20185;-70
2023/08/06 04:02:45;;;;;;;31.07;17.10;;;;;;;;;;5054860;28;20198;-70
2023/08/06 04:05:11;;;;;;;25.03;12.80;;;;;;;;;;5054944;28;20210;-70
2023/08/06 04:07:37;;;;;;;27.97;14.13;;;;;;;;;;5053396;28;20265;-70
2023/08/06 04:10:04;;;;;;;40.90;16.03;;;;;;;;;;5055100;28;20746;-70
2023/08/06 04:12:32;;;;;;;33.63;14.50;;;;;;;;;;5053242;28;20206;-70
2023/08/06 04:14:58;;;;;;;27.43;13.67;;;;;;;;;;5053354;28;20185;-69
2023/08/06 04:17:25;;;;;;;26.50;12.27;;;;;;;;;;5053189;28;20187;-70
2023/08/06 04:19:52;;;;;;;19.63;9.10;;;;;;;;;;5054604;28;20182;-70
2023/08/06 04:22:18;;;;;;;16.27;8.43;;;;;;;;;;5053028;28;20252;-70
2023/08/06 04:24:45;;;;;;;17.27;8.40;;;;;;;;;;5053384;28;20252;-70
2023/08/06 04:27:11;;;;;;;15.40;7.70;;;;;;;;;;5053207;28;20193;-70
2023/08/06 04:29:37;;;;;;;18.57;7.20;;;;;;;;;;5054241;28;20206;-70
2023/08/06 04:32:04;;;;;;;11.77;6.53;;;;;;;;;;5054020;28;20225;-70
2023/08/06 04:34:30;;;;;;;10.00;5.97;;;;;;;;;;5054106;28;20174;-70
2023/08/06 04:36:56;;;;;;;11.63;6.13;;;;;;;;;;5052901;28;20289;-70
2023/08/06 04:39:22;;;;;;;7.57;5.97;;;;;;;;;;5054039;28;20208;-70
2023/08/06 04:41:48;;;;;;;8.30;6.20;;;;;;;;;;5054160;28;20277;-71
2023/08/06 04:44:14;;;;;;;12.87;6.40;;;;;;;;;;5054262;28;20664;-71
2023/08/06 04:46:40;;;;;;;12.40;6.27;;;;;;;;;;5077069;22;20277;-64
2023/08/06 04:49:06;;;;;;;8.10;5.40;;;;;;;;;;5054440;28;20221;-63
2023/08/06 04:51:32;;;;;;;9.27;5.97;;;;;;;;;;5054612;28;20228;-64
2023/08/06 04:53:58;;;;;;;9.33;5.53;;;;;;;;;;5054401;28;20182;-65
2023/08/06 04:56:24;;;;;;;8.03;5.60;;;;;;;;;;5054122;28;20281;-64
2023/08/06 04:58:50;;;;;;;11.37;6.57;;;;;;;;;;5054365;28;20171;-64
2023/08/06 05:01:16;;;;;;;9.60;6.70;;;;;;;;;;5036264;28;20265;-65
2023/08/06 05:03:43;;;;;;;10.23;6.37;;;;;;;;;;5053892;28;20687;-64
2023/08/06 05:06:09;;;;;;;10.17;5.87;;;;;;;;;;5036300;28;20293;-64
2023/08/06 05:08:35;;;;;;;7.47;5.73;;;;;;;;;;5053832;28;20672;-64
2023/08/06 05:11:01;;;;;;;9.67;5.37;;;;;;;;;;5053827;28;20228;-64
2023/08/06 05:13:27;;;;;;;8.43;5.90;;;;;;;;;;5036447;28;20666;-64
2023/08/06 05:15:56;;;;;;;11.10;6.13;;;;;;;;;;5042620;28;20202;-66
2023/08/06 05:18:22;;;;;;;10.33;6.50;;;;;;;;;;5058575;28;20185;-66
2023/08/06 05:20:48;;;;;;;19.40;10.73;;;;;;;;;;5036787;28;20699;-64
2023/08/06 05:23:14;;;;;;;14.37;9.33;;;;;;;;;;5054627;28;20170;-64
2023/08/06 05:25:40;;;;;;;15.67;10.83;;;;;;;;;;5053986;28;20205;-64
2023/08/06 05:28:06;;;;;;;15.37;7.73;;;;;;;;;;5053584;28;20305;-66
2023/08/06 05:30:32;;;;;;;20.20;11.20;;;;;;;;;;5053739;28;20179;-64
2023/08/06 05:32:58;;;;;;;13.37;7.33;;;;;;;;;;5053661;28;20178;-64
2023/08/06 05:35:24;;;;;;;6.87;4.73;;;;;;;;;;5035628;28;20182;-65
2023/08/06 05:37:50;;;;;;;6.87;4.83;;;;;;;;;;5053450;28;20194;-64
2023/08/06 05:40:17;;;;;;;6.53;4.03;;;;;;;;;;5053614;28;20191;-64
2023/08/06 05:42:42;;;;;;;5.87;3.53;;;;;;;;;;5053751;28;20182;-64
2023/08/06 05:45:09;;;;;;;5.13;3.73;;;;;;;;;;5035573;28;20197;-64
2023/08/06 05:47:35;;;;;;;7.80;3.60;;;;;;;;;;5053212;28;20264;-63
2023/08/06 05:50:01;;;;;;;6.17;3.73;;;;;;;;;;5036083;28;20206;-64
2023/08/06 05:52:27;;;;;;;8.70;3.77;;;;;;;;;;5054465;28;20221;-64
2023/08/06 05:54:54;;;;;;;4.40;3.80;;;;;;;;;;5035624;28;20288;-66
2023/08/06 05:57:20;;;;;;;5.87;3.77;;;;;;;;;;5035967;28;20202;-66
2023/08/06 05:59:46;;;;;;;11.93;4.20;;;;;;;;;;5039587;28;20612;-65
2023/08/06 06:02:12;;;;;;;7.53;4.63;;;;;;;;;;5057498;28;20762;-66
2023/08/06 06:04:38;;;;;;;8.40;4.90;;;;;;;;;;5057499;28;20182;-66
2023/08/06 06:07:04;;;;;;;4.13;3.53;;;;;;;;;;5057409;28;20734;-67
2023/08/06 06:09:30;;;;;;;6.57;3.90;;;;;;;;;;5039240;28;20245;-64
2023/08/06 06:11:56;;;;;;;6.90;3.80;;;;;;;;;;5057365;28;20183;-65
2023/08/06 06:14:22;;;;;;;6.33;3.23;;;;;;;;;;5057351;28;20595;-64
2023/08/06 06:16:48;;;;;;;4.03;3.63;;;;;;;;;;5057391;28;20194;-64
2023/08/06 06:19:14;;;;;;;5.87;3.63;;;;;;;;;;5057323;28;20230;-64
2023/08/06 06:21:40;;;;;;;4.43;3.53;;;;;;;;;;5056924;28;20192;-64
2023/08/06 06:24:07;;;;;;;9.73;6.00;;;;;;;;;;5057789;28;20182;-65
2023/08/06 06:26:33;;;;;;;4.77;4.17;;;;;;;;;;5057043;28;20218;-65
2023/08/06 06:28:59;;;;;;;8.20;4.30;;;;;;;;;;5056918;28;20253;-65
2023/08/06 06:31:25;;;;;;;6.87;4.83;;;;;;;;;;5056963;28;20182;-65
2023/08/06 06:33:54;;;;;;;7.83;5.10;;;;;;;;;;5057112;28;20261;-66
2023/08/06 06:36:20;;;;;;;7.77;4.40;;;;;;;;;;5039189;28;20190;-65
2023/08/06 06:38:46;;;;;;;6.67;4.77;;;;;;;;;;5057078;28;20706;-65
2023/08/06 06:41:12;;;;;;;6.23;4.83;;;;;;;;;;5057335;28;20171;-65
2023/08/06 06:43:39;;;;;;;7.20;6.17;;;;;;;;;;5038829;28;20665;-66
2023/08/06 06:46:05;;;;;;;13.67;8.33;;;;;;;;;;5056963;28;20805;-65
2023/08/06 06:48:33;;;;;;;17.43;9.40;;;;;;;;;;5038556;28;20293;-66
2023/08/06 06:50:59;;;;;;;12.93;8.17;;;;;;;;;;5056699;28;20182;-65
2023/08/06 06:53:28;;;;;;;10.93;7.83;;;;;;;;;;5056601;28;20224;-65
2023/08/06 06:55:55;;;;;;;10.90;6.53;;;;;;;;;;5056554;28;20181;-65
2023/08/06 06:58:21;;;;;;;8.67;5.47;;;;;;;;;;5056590;28;20644;-66
2023/08/06 07:00:48;;;;;;;10.70;7.50;;;;;;;;;;5056369;28;20181;-65
2023/08/06 07:03:14;;;;;;;11.93;7.70;;;;;;;;;;5038395;28;20182;-67
2023/08/06 07:05:39;;;;;;;9.97;7.23;;;;;;;;;;5056257;28;20178;-65
2023/08/06 07:08:05;;;;;;;7.87;6.60;;;;;;;;;;5056079;28;20206;-65
2023/08/06 07:10:31;;;;;;;8.00;5.93;;;;;;;;;;5037395;28;20687;-66
2023/08/06 07:12:57;;;;;;;8.13;5.93;;;;;;;;;;5056536;28;20181;-66
2023/08/06 07:15:23;;;;;;;8.90;7.47;;;;;;;;;;5038142;28;20641;-65
2023/08/06 07:17:49;;;;;;;9.13;7.73;;;;;;;;;;5055893;28;20194;-65
2023/08/06 07:20:15;;;;;;;8.60;7.73;;;;;;;;;;5055852;28;20189;-66
2023/08/06 07:22:41;;;;;;;9.93;8.87;;;;;;;;;;5056011;28;20264;-65
2023/08/06 07:25:07;;;;;;;10.30;8.57;;;;;;;;;;5056156;28;20224;-65
2023/08/06 07:27:33;;;;;;;11.40;9.10;;;;;;;;;;5055873;28;20195;-66
2023/08/06 07:29:59;;;;;;;8.53;7.73;;;;;;;;;;5055979;28;20285;-66
2023/08/06 07:32:25;;;;;;;10.03;7.27;;;;;;;;;;5055849;28;20190;-66
2023/08/06 07:34:59;;;;;;;8.07;6.67;;;;;;;;;;5055773;28;20174;-66
2023/08/06 07:37:25;;;;;;;7.57;5.87;;;;;;;;;;5037680;28;20198;-65
2023/08/06 07:39:51;;;;;;;6.40;5.33;;;;;;;;;;5056430;28;20184;-65
2023/08/06 07:42:20;;;;;;;7.60;5.37;;;;;;;;;;5055894;28;20206;-65
2023/08/06 07:44:50;;;;;;;9.23;5.17;;;;;;;;;;5038450;28;20174;-66
2023/08/06 07:47:16;;;;;;;5.40;4.60;;;;;;;;;;5055525;28;20221;-65
2023/08/06 07:49:42;;;;;;;6.07;4.50;;;;;;;;;;5037573;28;20214;-66
2023/08/06 07:52:08;;;;;;;6.00;4.97;;;;;;;;;;5037623;28;20557;-65
2023/08/06 07:54:34;;;;;;;9.50;4.50;;;;;;;;;;5055956;28;20551;-66
2023/08/06 07:57:00;;;;;;;6.27;4.67;;;;;;;;;;5060336;28;20544;-66
2023/08/06 07:59:26;;;;;;;5.30;4.40;;;;;;;;;;5042486;28;20193;-66
2023/08/06 08:01:52;;;;;;;5.90;4.67;;;;;;;;;;5038812;28;20186;-65
2023/08/06 08:04:18;;;;;;;10.00;4.20;;;;;;;;;;5056017;28;20174;-66
2023/08/06 08:06:44;;;;;;;6.03;4.33;;;;;;;;;;5038963;28;20680;-66
2023/08/06 08:09:10;;;;;;;6.17;3.73;;;;;;;;;;5055085;28;20304;-65
2023/08/06 08:11:36;;;;;;;6.93;4.37;;;;;;;;;;5037525;28;20186;-66
2023/08/06 08:14:02;;;;;;;5.00;3.87;;;;;;;;;;5055030;28;20179;-66
2023/08/06 08:16:28;;;;;;;7.37;4.20;;;;;;;;;;5054888;28;20264;-67
2023/08/06 08:18:54;;;;;;;5.87;3.63;;;;;;;;;;5036978;28;20640;-67
2023/08/06 08:21:20;;;;;;;8.80;3.77;;;;;;;;;;5036229;28;20182;-66
2023/08/06 08:23:46;;;;;;;5.67;3.67;;;;;;;;;;5055306;28;20299;-65
2023/08/06 08:26:12;;;;;;;5.23;3.10;;;;;;;;;;5037293;28;20289;-67
2023/08/06 08:28:38;;;;;;;4.70;3.40;;;;;;;;;;5037206;28;20641;-67
2023/08/06 08:31:04;;;;;;;6.53;2.90;;;;;;;;;;5054915;28;20236;-66
2023/08/06 08:33:30;;;;;;;3.17;2.83;;;;;;;;;;5055123;28;20175;-67
2023/08/06 08:35:56;;;;;;;7.67;3.33;;;;;;;;;;5055056;28;20220;-66
2023/08/06 08:38:22;;;;;;;4.83;3.00;;;;;;;;;;5037075;28;20182;-66
2023/08/06 08:40:51;;;;;;;4.63;3.70;;;;;;;;;;5055631;28;20265;-66
2023/08/06 08:43:18;;;;;;;8.43;2.77;;;;;;;;;;5054767;28;20209;-66
2023/08/06 08:45:47;;;;;;;6.50;3.13;;;;;;;;;;5036489;28;20178;-67
2023/08/06 08:48:14;;;;;;;4.10;3.03;;;;;;;;;;5036428;28;20256;-67
2023/08/06 08:50:40;;;;;;;3.80;2.80;;;;;;;;;;5036446;28;20224;-66
2023/08/06 08:53:06;;;;;;;4.97;2.37;;;;;;;;;;5054463;28;20175;-66
2023/08/06 08:55:32;;;;;;;4.40;2.70;;;;;;;;;;5054117;28;20702;-66
2023/08/06 08:57:58;;;;;;;3.20;1.97;;;;;;;;;;5053915;28;20194;-67
2023/08/06 09:00:25;;;;;;;3.30;2.33;;;;;;;;;;5036123;28;20185;-66
2023/08/06 09:02:51;;;;;;;4.00;2.17;;;;;;;;;;5036313;28;20652;-66
2023/08/06 09:05:18;;;;;;;5.33;2.50;;;;;;;;;;5053932;28;20267;-66
2023/08/06 09:07:48;;;;;;;5.00;2.47;;;;;;;;;;5054145;28;20579;-64
2023/08/06 09:10:17;;;;;;;4.03;2.30;;;;;;;;;;5036050;28;20256;-66
2023/08/06 09:12:44;;;;;;;4.07;2.60;;;;;;;;;;5036080;28;20181;-66
2023/08/06 09:15:10;;;;;;;5.10;2.63;;;;;;;;;;5053855;28;20262;-67
2023/08/06 09:17:37;;;;;;;7.40;3.13;;;;;;;;;;5054006;28;20204;-66
2023/08/06 09:20:09;;;;;;;6.87;2.63;;;;;;;;;;5054131;28;20182;-66
2023/08/06 09:22:35;;;;;;;3.80;2.90;;;;;;;;;;5054344;28;20261;-66
2023/08/06 09:25:03;;;;;;;3.67;2.70;;;;;;;;;;5054736;28;20675;-66
2023/08/06 09:27:29;;;;;;;3.80;2.60;;;;;;;;;;5053800;28;20190;-66
2023/08/06 09:29:55;;;;;;;3.93;2.73;;;;;;;;;;5053626;28;20276;-66
2023/08/06 09:32:21;;;;;;;6.10;3.03;;;;;;;;;;5035594;28;20608;-66
2023/08/06 09:34:47;;;;;;;6.73;3.33;;;;;;;;;;5054266;28;20185;-66
2023/08/06 09:37:13;;;;;;;5.53;3.30;;;;;;;;;;5055148;28;20656;-66
2023/08/06 09:39:42;;;;;;;5.20;3.30;;;;;;;;;;5057725;28;20292;-66
2023/08/06 09:42:08;;;;;;;5.87;3.50;;;;;;;;;;5055550;28;20186;-66
2023/08/06 09:44:35;;;;;;;6.07;3.33;;;;;;;;;;5055958;28;20179;-66
2023/08/06 09:47:04;;;;;;;5.77;3.93;;;;;;;;;;5036219;28;20230;-66
2023/08/06 09:49:51;;;;;;;6.63;3.43;;;;;;;;;;5035695;28;20207;-66
2023/08/06 09:52:17;;;;;;;7.87;4.53;;;;;;;;;;5053741;28;20155;-67
2023/08/06 09:54:44;;;;;;;8.83;4.73;;;;;;;;;;5053892;28;20175;-65
2023/08/06 09:57:11;;;;;;;8.93;5.77;;;;;;;;;;5035514;28;20206;-65
2023/08/06 09:59:39;;;;;;;8.17;5.80;;;;;;;;;;5035391;28;20178;-65
2023/08/06 10:02:11;;;;;;;9.03;6.50;;;;;;;;;;5035466;28;20277;-65
2023/08/06 10:04:37;;;;;;;6.37;5.77;;;;;;;;;;5053330;28;20166;-66
2023/08/06 10:07:03;;;;;;;9.27;6.23;;;;;;;;;;5035522;28;20202;-67
2023/08/06 10:09:29;;;;;;;10.27;6.23;;;;;;;;;;5053265;28;20565;-66
2023/08/06 10:11:57;;;;;;;7.87;5.83;;;;;;;;;;5053434;28;20222;-66
2023/08/06 10:14:26;;;;;;;7.27;6.10;;;;;;;;;;5035231;28;20178;-66
2023/08/06 10:16:52;;;;;;;9.93;6.90;;;;;;;;;;5036972;28;20202;-66
2023/08/06 10:19:18;;;;;;;9.77;7.60;;;;;;;;;;5054068;28;20265;-66
2023/08/06 10:22:02;;;;;;;8.30;7.53;;;;;;;;;;5053288;28;20575;-65
2023/08/06 10:24:45;;;;;;;8.53;7.03;;;;;;;;;;5053262;28;20336;-66
2023/08/06 10:27:11;;;;;;;7.93;7.27;;;;;;;;;;5052940;28;20677;-66
2023/08/06 10:29:37;;;;;;;6.80;6.30;;;;;;;;;;5052986;28;20202;-66
2023/08/06 10:32:07;;;;;;;6.87;5.90;;;;;;;;;;5053345;28;20206;-66
2023/08/06 10:34:51;;;;;;;7.83;6.30;;;;;;;;;;5035368;28;20194;-66
2023/08/06 10:37:19;;;;;;;3.93;3.53;;;;;;;;;;5055801;28;20203;-66
2023/08/06 10:39:50;;;;;;;4.23;3.47;;;;;;;;;;5055303;28;20233;-65
2023/08/06 10:42:20;;;;;;;3.93;2.93;;;;;;;;;;5035355;28;20731;-66
2023/08/06 10:45:05;;;;;;;2.73;2.50;;;;;;;;;;5054321;28;20522;-65
2023/08/06 10:47:39;;;;;;;15.43;12.97;;;;;;;;;;5038759;28;20309;-65
2023/08/06 10:50:05;;;;;;;47.70;37.20;;;;;;;;;;5056776;28;20187;-66
2023/08/06 10:52:31;;;;;;;45.33;25.97;;;;;;;;;;5038588;28;20664;-66
2023/08/06 10:54:57;;;;;;;89.53;50.77;;;;;;;;;;5038363;28;20187;-65
2023/08/06 10:57:24;;;;;;;29.52;24.15;;;;;;;;;;5038097;28;20393;-64
2023/08/06 10:59:50;;;;;;;7.53;6.82;;;;;;;;;;5055320;28;20476;-65
2023/08/06 11:02:16;;;;;;;17.13;15.48;;;;;;;;;;5055056;28;20385;-65
2023/08/06 11:04:43;;;;;;;5.07;3.95;;;;;;;;;;5055235;28;20377;-66
2023/08/06 11:07:09;;;;;;;5.88;5.38;;;;;;;;;;5037232;28;20386;-65
2023/08/06 11:09:35;;;;;;;2.43;2.00;;;;;;;;;;5038587;28;20224;-66
2023/08/06 11:12:01;;;;;;;2.27;2.00;;;;;;;;;;5056696;28;20170;-66
2023/08/06 11:14:27;;;;;;;2.63;2.43;;;;;;;;;;5056366;28;20174;-66
2023/08/06 11:16:54;;;;;;;2.37;2.20;;;;;;;;;;5056553;28;20187;-64
2023/08/06 11:19:20;;;;;;;3.60;2.37;;;;;;;;;;5039116;28;20557;-67
2023/08/06 11:21:47;;;;;;;4.53;2.70;;;;;;;;;;5056817;28;20174;-66
2023/08/06 11:24:13;;;;;;;4.27;2.87;;;;;;;;;;5056563;28;20171;-65
2023/08/06 11:26:40;;;;;;;2.88;2.67;;;;;;;;;;5037519;28;20401;-65
2023/08/06 11:29:06;;;;;;;3.78;3.38;;;;;;;;;;5036788;28;20415;-66
2023/08/06 11:31:32;;;;;;;2.70;2.50;;;;;;;;;;5055322;28;20382;-66
2023/08/06 11:33:58;;;;;;;2.95;2.75;;;;;;;;;;5054943;28;20377;-66
2023/08/06 11:36:30;;;;;;;4.28;3.88;;;;;;;;;;5054617;28;20386;-66
2023/08/06 11:38:56;;;;;;;2.50;2.30;;;;;;;;;;5054514;28;20382;-66
2023/08/06 11:41:22;;;;;;;2.78;2.58;;;;;;;;;;5036518;28;20473;-66
2023/08/06 11:43:48;;;;;;;2.50;2.30;;;;;;;;;;5054430;28;20414;-66
2023/08/06 11:46:14;;;;;;;2.85;2.50;;;;;;;;;;5054294;28;20401;-66
2023/08/06 11:48:56;;;;;;;2.00;1.90;;;;;;;;;;5036454;28;20768;-67
2023/08/06 11:51:26;;;;;;;2.25;2.05;;;;;;;;;;5054389;28;20385;-66
2023/08/06 11:53:56;;;;;;;3.00;2.53;;;;;;;;;;5054074;28;20389;-66
2023/08/06 11:56:22;;;;;;;2.78;2.58;;;;;;;;;;5053791;28;20382;-65
2023/08/06 11:58:48;;;;;;;2.45;2.25;;;;;;;;;;5053745;28;20863;-65
2023/08/06 12:01:14;;;;;;;2.20;1.83;;;;;;;;;;5054195;28;20378;-67
2023/08/06 12:03:41;;;;;;;1.98;1.60;;;;;;;;;;5036137;28;20463;-67
2023/08/06 12:06:07;;;;;;;1.60;1.50;;;;;;;;;;5053825;28;20396;-66
2023/08/06 12:08:33;;;;;;;2.13;1.90;;;;;;;;;;5035910;28;20808;-66
2023/08/06 12:10:59;;;;;;;2.42;2.10;;;;;;;;;;5035978;28;20369;-65
2023/08/06 12:13:25;;;;;;;2.10;2.00;;;;;;;;;;5053835;28;20409;-66
2023/08/06 12:15:53;;;;;;;2.10;1.90;;;;;;;;;;5053614;28;20385;-65
2023/08/06 12:18:19;;;;;;;1.88;1.70;;;;;;;;;;5053979;28;20921;-66
2023/08/06 12:20:45;;;;;;;2.03;1.85;;;;;;;;;;5053754;28;20431;-66
2023/08/06 12:23:15;;;;;;;1.80;1.70;;;;;;;;;;5053507;28;20879;-66
2023/08/06 12:25:41;;;;;;;1.95;1.75;;;;;;;;;;5054527;28;20400;-65
2023/08/06 12:28:08;;;;;;;3.67;3.28;;;;;;;;;;5055897;28;20382;-66
2023/08/06 12:30:34;;;;;;;7.32;6.28;;;;;;;;;;5055290;28;20401;-65
2023/08/06 12:33:00;;;;;;;3.50;3.10;;;;;;;;;;5036487;28;20969;-65
2023/08/06 12:35:26;;;;;;;3.78;3.47;;;;;;;;;;5054264;28;20739;-65
2023/08/06 12:37:54;;;;;;;3.25;2.92;;;;;;;;;;5042941;23;20782;-70
2023/08/06 12:40:20;;;;;;;4.57;4.23;;;;;;;;;;5035229;28;20932;-70
2023/08/06 12:42:46;;;;;;;3.97;3.67;;;;;;;;;;5035263;28;20923;-71
2023/08/06 12:45:12;;;;;;;2.70;2.50;;;;;;;;;;5035954;28;20379;-72
2023/08/06 12:47:38;;;;;;;3.53;3.22;;;;;;;;;;5022254;28;20462;-70
2023/08/06 12:50:04;;;;;;;4.88;3.00;;;;;;;;;;5040560;28;20445;-71
2023/08/06 12:52:30;;;;;;;4.18;3.13;;;;;;;;;;5036844;28;20870;-71
2023/08/06 12:54:56;;;;;;;3.80;3.45;;;;;;;;;;5036937;28;20382;-71
2023/08/06 12:57:22;;;;;;;4.22;3.83;;;;;;;;;;5018401;28;20912;-70
2023/08/06 12:59:48;;;;;;;3.63;3.23;;;;;;;;;;5020932;28;20179;-71
2023/08/06 13:02:14;;;;;;;4.97;3.73;;;;;;;;;;5037096;28;20179;-70
2023/08/06 13:04:40;;;;;;;4.17;3.70;;;;;;;;;;5035362;28;20179;-70
2023/08/06 13:07:06;;;;;;;5.60;4.00;;;;;;;;;;5033918;28;20202;-70
2023/08/06 13:09:32;;;;;;;5.83;4.03;;;;;;;;;;5016795;28;20302;-70
2023/08/06 13:11:59;;;;;;;4.63;4.13;;;;;;;;;;5016511;28;20657;-71
2023/08/06 13:14:25;;;;;;;4.60;3.93;;;;;;;;;;5016435;28;20182;-71
2023/08/06 13:16:51;;;;;;;5.20;4.23;;;;;;;;;;5034369;28;20274;-70
2023/08/06 13:19:18;;;;;;;4.87;4.00;;;;;;;;;;5016463;28;20657;-70
2023/08/06 13:21:48;;;;;;;4.53;3.90;;;;;;;;;;5017149;28;20214;-70
2023/08/06 13:24:14;;;;;;;4.43;3.63;;;;;;;;;;5042448;28;20175;-70
2023/08/06 13:26:40;;;;;;;3.33;3.03;;;;;;;;;;5017169;28;20664;-70
2023/08/06 13:29:07;;;;;;;5.50;3.80;;;;;;;;;;5016141;28;20661;-71
2023/08/06 13:31:33;;;;;;;3.73;3.33;;;;;;;;;;5034542;28;20187;-71
2023/08/06 13:33:59;;;;;;;5.70;3.30;;;;;;;;;;5016275;28;20179;-71
2023/08/06 13:36:28;;;;;;;3.97;3.40;;;;;;;;;;5034353;28;20688;-71
2023/08/06 13:38:54;;;;;;;3.37;3.07;;;;;;;;;;5016353;28;20265;-70
2023/08/06 13:41:20;;;;;;;7.30;4.80;;;;;;;;;;5035425;28;20214;-71
2023/08/06 13:43:47;;;;;;;5.07;3.33;;;;;;;;;;5017983;28;20534;-70
2023/08/06 13:46:18;;;;;;;4.40;2.73;;;;;;;;;;5017886;28;20186;-70
2023/08/06 13:48:44;;;;;;;3.40;2.80;;;;;;;;;;5035238;28;20210;-70
2023/08/06 13:51:11;;;;;;;4.43;2.90;;;;;;;;;;5016616;28;20645;-70
2023/08/06 13:53:37;;;;;;;3.57;2.60;;;;;;;;;;5033899;28;20703;-70
2023/08/06 13:56:03;;;;;;;3.90;3.10;;;;;;;;;;5034022;28;20183;-70
2023/08/06 13:58:29;;;;;;;4.20;2.70;;;;;;;;;;5015755;28;20199;-70
2023/08/06 14:00:55;;;;;;;3.50;2.50;;;;;;;;;;5033558;28;20179;-70
2023/08/06 14:03:21;;;;;;;3.07;2.63;;;;;;;;;;5015512;28;20183;-70
2023/08/06 14:05:48;;;;;;;;;;;;;;;;;;5016048;28;20491;-70
2023/08/06 14:08:13;;;;;;;;;;;;;;;;;;5034420;28;20015;-70
2023/08/06 14:10:39;;;;;;;4.25;2.90;;;;;;;;;;5032892;28;20913;-70
2023/08/06 14:13:05;;;;;;;3.30;2.53;;;;;;;;;;5033376;28;20382;-70
2023/08/06 14:15:33;;;;;;;3.08;2.40;;;;;;;;;;5034283;28;20375;-70
2023/08/06 14:17:59;;;;;;;3.20;2.50;;;;;;;;;;5039098;28;20399;-69
2023/08/06 14:20:25;;;;;;;4.68;3.60;;;;;;;;;;5037690;28;20398;-70
2023/08/06 14:22:50;;;;;;;3.92;2.78;;;;;;;;;;5035832;28;20382;-70
2023/08/06 14:25:16;;;;;;;3.33;2.60;;;;;;;;;;5017903;28;20391;-70
2023/08/06 14:27:42;;;;;;;3.88;2.70;;;;;;;;;;5035794;28;20383;-70
2023/08/06 14:30:08;;;;;;;2.80;2.35;;;;;;;;;;5018124;28;20442;-70
2023/08/06 14:32:34;;;;;;;4.32;3.83;;;;;;;;;;5036588;28;20387;-70
2023/08/06 14:35:00;;;;;;;4.15;3.30;;;;;;;;;;5035956;28;20954;-70
2023/08/06 14:37:26;;;;;;;6.00;5.35;;;;;;;;;;5017617;28;20911;-70